sensor_id;sensor_type;location;lat;lon;timestamp;P1;durP1;ratioP1;P2;durP2;ratioP2
59054;SDS011;44845;51.444;7.460;2023-05-10T00:00:14;4.82;;;0.80;;
59054;SDS011;44845;51.444;7.460;2023-05-10T00:02:40;1.85;;;0.57;;
59054;SDS011;44845;51.444;7.460;2023-05-10T00:05:05;3.70;;;0.63;;
59054;SDS011;44845;51.444;7.460;2023-05-10T00:07:31;0.70;;;0.52;;
59054;SDS011;44845;51.444;7.460;2023-05-10T00:09:57;2.25;;;0.73;;
59054;SDS011;44845;51.444;7.460;2023-05-10T00:12:22;2.45;;;0.65;;
59054;SDS011;44845;51.444;7.460;2023-05-10T00:14:47;2.00;;;0.70;;
59054;SDS011;44845;51.444;7.460;2023-05-10T00:17:13;2.53;;;0.90;;
59054;SDS011;44845;51.444;7.460;2023-05-10T00:19:39;0.80;;;0.70;;
59054;SDS011;44845;51.444;7.460;2023-05-10T00:22:04;3.03;;;0.77;;
59054;SDS011;44845;51.444;7.460;2023-05-10T00:24:29;3.65;;;0.90;;
59054;SDS011;44845;51.444;7.460;2023-05-10T00:26:55;2.00;;;1.08;;
59054;SDS011;44845;51.444;7.460;2023-05-10T00:29:20;1.00;;;1.00;;
59054;SDS011;44845;51.444;7.460;2023-05-10T00:31:45;3.15;;;1.00;;
59054;SDS011;44845;51.444;7.460;2023-05-10T00:34:11;3.78;;;1.10;;
59054;SDS011;44845;51.444;7.460;2023-05-10T00:36:36;0.90;;;0.90;;
59054;SDS011;44845;51.444;7.460;2023-05-10T00:39:02;3.90;;;1.20;;
59054;SDS011;44845;51.444;7.460;2023-05-10T00:41:28;4.35;;;1.02;;
59054;SDS011;44845;51.444;7.460;2023-05-10T00:43:54;1.55;;;1.00;;
59054;SDS011;44845;51.444;7.460;2023-05-10T00:46:19;1.95;;;1.25;;
59054;SDS011;44845;51.444;7.460;2023-05-10T00:48:45;1.88;;;1.30;;
59054;SDS011;44845;51.444;7.460;2023-05-10T00:51:10;1.35;;;0.90;;
59054;SDS011;44845;51.444;7.460;2023-05-10T00:53:36;1.95;;;1.20;;
59054;SDS011;44845;51.444;7.460;2023-05-10T00:56:01;2.10;;;1.10;;
59054;SDS011;44845;51.444;7.460;2023-05-10T00:58:28;1.83;;;1.10;;
59054;SDS011;44845;51.444;7.460;2023-05-10T01:00:54;3.67;;;1.20;;
59054;SDS011;44845;51.444;7.460;2023-05-10T01:03:21;1.10;;;1.02;;
59054;SDS011;44845;51.444;7.460;2023-05-10T01:05:47;1.83;;;1.30;;
59054;SDS011;44845;51.444;7.460;2023-05-10T01:08:12;2.45;;;1.33;;
59054;SDS011;44845;51.444;7.460;2023-05-10T01:10:38;2.15;;;1.70;;
59054;SDS011;44845;51.444;7.460;2023-05-10T01:13:03;1.92;;;1.83;;
59054;SDS011;44845;51.444;7.460;2023-05-10T01:15:29;3.25;;;2.15;;
59054;SDS011;44845;51.444;7.460;2023-05-10T01:17:55;2.80;;;2.60;;
59054;SDS011;44845;51.444;7.460;2023-05-10T01:20:21;4.20;;;2.42;;
59054;SDS011;44845;51.444;7.460;2023-05-10T01:28:17;6.90;;;2.60;;
59054;SDS011;44845;51.444;7.460;2023-05-10T01:31:08;6.25;;;2.92;;
59054;SDS011;44845;51.444;7.460;2023-05-10T01:38:53;6.18;;;3.92;;
59054;SDS011;44845;51.444;7.460;2023-05-10T01:46:36;6.22;;;4.00;;
59054;SDS011;44845;51.444;7.460;2023-05-10T01:49:03;7.32;;;4.15;;
59054;SDS011;44845;51.444;7.460;2023-05-10T01:51:42;7.68;;;4.25;;
59054;SDS011;44845;51.444;7.460;2023-05-10T01:54:12;5.00;;;4.55;;
59054;SDS011;44845;51.444;7.460;2023-05-10T01:56:42;5.07;;;4.60;;
59054;SDS011;44845;51.444;7.460;2023-05-10T01:59:12;5.05;;;4.32;;
59054;SDS011;44845;51.444;7.460;2023-05-10T02:01:40;6.20;;;4.40;;
59054;SDS011;44845;51.444;7.460;2023-05-10T02:04:07;5.85;;;4.45;;
59054;SDS011;44845;51.444;7.460;2023-05-10T02:06:35;7.78;;;4.03;;
59054;SDS011;44845;51.444;7.460;2023-05-10T02:09:02;5.65;;;4.30;;
59054;SDS011;44845;51.444;7.460;2023-05-10T02:11:29;6.72;;;4.18;;
59054;SDS011;44845;51.444;7.460;2023-05-10T02:13:56;4.03;;;3.65;;
59054;SDS011;44845;51.444;7.460;2023-05-10T02:16:23;4.30;;;3.90;;
59054;SDS011;44845;51.444;7.460;2023-05-10T02:18:51;6.93;;;4.18;;
59054;SDS011;44845;51.444;7.460;2023-05-10T02:21:17;4.13;;;3.72;;
59054;SDS011;44845;51.444;7.460;2023-05-10T02:23:45;6.72;;;3.90;;
59054;SDS011;44845;51.444;7.460;2023-05-10T02:26:13;4.13;;;3.83;;
59054;SDS011;44845;51.444;7.460;2023-05-10T02:28:40;7.20;;;4.05;;
59054;SDS011;44845;51.444;7.460;2023-05-10T02:31:07;5.32;;;3.55;;
59054;SDS011;44845;51.444;7.460;2023-05-10T02:33:35;5.80;;;4.97;;
59054;SDS011;44845;51.444;7.460;2023-05-10T02:36:03;5.10;;;4.70;;
59054;SDS011;44845;51.444;7.460;2023-05-10T02:38:30;5.55;;;5.05;;
59054;SDS011;44845;51.444;7.460;2023-05-10T02:40:57;5.47;;;4.97;;
59054;SDS011;44845;51.444;7.460;2023-05-10T02:43:24;5.78;;;5.05;;
59054;SDS011;44845;51.444;7.460;2023-05-10T02:45:51;8.38;;;5.40;;
59054;SDS011;44845;51.444;7.460;2023-05-10T02:48:16;6.15;;;4.90;;
59054;SDS011;44845;51.444;7.460;2023-05-10T02:50:44;5.90;;;5.30;;
59054;SDS011;44845;51.444;7.460;2023-05-10T02:53:18;5.80;;;5.20;;
59054;SDS011;44845;51.444;7.460;2023-05-10T02:55:49;9.13;;;5.78;;
59054;SDS011;44845;51.444;7.460;2023-05-10T02:58:17;10.32;;;5.70;;
59054;SDS011;44845;51.444;7.460;2023-05-10T03:00:44;7.10;;;6.32;;
59054;SDS011;44845;51.444;7.460;2023-05-10T03:03:11;6.97;;;5.80;;
59054;SDS011;44845;51.444;7.460;2023-05-10T03:05:36;7.05;;;6.03;;
59054;SDS011;44845;51.444;7.460;2023-05-10T03:08:01;6.95;;;5.82;;
59054;SDS011;44845;51.444;7.460;2023-05-10T03:10:29;7.35;;;6.65;;
59054;SDS011;44845;51.444;7.460;2023-05-10T03:13:07;8.73;;;7.40;;
59054;SDS011;44845;51.444;7.460;2023-05-10T03:18:29;7.93;;;6.80;;
59054;SDS011;44845;51.444;7.460;2023-05-10T03:21:02;9.82;;;6.97;;
59054;SDS011;44845;51.444;7.460;2023-05-10T03:23:38;10.88;;;6.93;;
59054;SDS011;44845;51.444;7.460;2023-05-10T03:26:12;14.77;;;7.30;;
59054;SDS011;44845;51.444;7.460;2023-05-10T03:28:43;9.65;;;7.10;;
59054;SDS011;44845;51.444;7.460;2023-05-10T03:31:09;9.10;;;7.22;;
59054;SDS011;44845;51.444;7.460;2023-05-10T03:33:34;9.60;;;7.93;;
59054;SDS011;44845;51.444;7.460;2023-05-10T03:36:00;8.70;;;7.78;;
59054;SDS011;44845;51.444;7.460;2023-05-10T03:38:25;9.38;;;7.50;;
59054;SDS011;44845;51.444;7.460;2023-05-10T03:40:50;13.40;;;7.80;;
59054;SDS011;44845;51.444;7.460;2023-05-10T03:43:16;8.70;;;7.28;;
59054;SDS011;44845;51.444;7.460;2023-05-10T03:45:41;9.25;;;7.38;;
59054;SDS011;44845;51.444;7.460;2023-05-10T03:48:06;10.07;;;7.28;;
59054;SDS011;44845;51.444;7.460;2023-05-10T03:50:32;12.30;;;7.70;;
59054;SDS011;44845;51.444;7.460;2023-05-10T03:52:57;8.88;;;7.15;;
59054;SDS011;44845;51.444;7.460;2023-05-10T03:55:23;9.10;;;7.82;;
59054;SDS011;44845;51.444;7.460;2023-05-10T03:57:48;8.57;;;7.00;;
59054;SDS011;44845;51.444;7.460;2023-05-10T04:00:14;8.15;;;6.93;;
59054;SDS011;44845;51.444;7.460;2023-05-10T04:02:40;10.40;;;8.10;;
59054;SDS011;44845;51.444;7.460;2023-05-10T04:05:05;8.95;;;7.22;;
59054;SDS011;44845;51.444;7.460;2023-05-10T04:07:31;12.05;;;7.85;;
59054;SDS011;44845;51.444;7.460;2023-05-10T04:09:56;9.15;;;7.53;;
59054;SDS011;44845;51.444;7.460;2023-05-10T04:12:22;9.55;;;7.35;;
59054;SDS011;44845;51.444;7.460;2023-05-10T04:14:47;11.05;;;8.43;;
59054;SDS011;44845;51.444;7.460;2023-05-10T04:17:12;10.45;;;7.70;;
59054;SDS011;44845;51.444;7.460;2023-05-10T04:19:38;10.75;;;7.35;;
59054;SDS011;44845;51.444;7.460;2023-05-10T04:22:03;10.25;;;7.47;;
59054;SDS011;44845;51.444;7.460;2023-05-10T04:24:28;13.88;;;7.32;;
59054;SDS011;44845;51.444;7.460;2023-05-10T04:26:54;8.75;;;7.25;;
59054;SDS011;44845;51.444;7.460;2023-05-10T04:29:20;10.63;;;6.75;;
59054;SDS011;44845;51.444;7.460;2023-05-10T04:31:45;13.13;;;6.57;;
59054;SDS011;44845;51.444;7.460;2023-05-10T04:34:10;9.32;;;7.00;;
59054;SDS011;44845;51.444;7.460;2023-05-10T04:36:36;10.77;;;6.43;;
59054;SDS011;44845;51.444;7.460;2023-05-10T04:39:02;9.10;;;6.07;;
59054;SDS011;44845;51.444;7.460;2023-05-10T04:41:28;8.70;;;5.88;;
59054;SDS011;44845;51.444;7.460;2023-05-10T04:43:53;8.13;;;5.90;;
59054;SDS011;44845;51.444;7.460;2023-05-10T04:46:18;8.05;;;5.30;;
59054;SDS011;44845;51.444;7.460;2023-05-10T04:48:44;8.20;;;5.40;;
59054;SDS011;44845;51.444;7.460;2023-05-10T04:51:09;8.68;;;6.13;;
59054;SDS011;44845;51.444;7.460;2023-05-10T04:53:35;10.18;;;7.40;;
59054;SDS011;44845;51.444;7.460;2023-05-10T04:56:00;12.93;;;8.20;;
59054;SDS011;44845;51.444;7.460;2023-05-10T04:58:26;14.75;;;8.90;;
59054;SDS011;44845;51.444;7.460;2023-05-10T05:00:51;11.43;;;8.85;;
59054;SDS011;44845;51.444;7.460;2023-05-10T05:03:16;12.30;;;9.50;;
59054;SDS011;44845;51.444;7.460;2023-05-10T05:05:43;13.82;;;11.00;;
59054;SDS011;44845;51.444;7.460;2023-05-10T05:08:08;16.50;;;10.90;;
59054;SDS011;44845;51.444;7.460;2023-05-10T05:10:34;16.20;;;11.25;;
59054;SDS011;44845;51.444;7.460;2023-05-10T05:12:59;19.15;;;11.82;;
59054;SDS011;44845;51.444;7.460;2023-05-10T05:15:25;17.02;;;13.25;;
59054;SDS011;44845;51.444;7.460;2023-05-10T05:17:50;22.85;;;14.15;;
59054;SDS011;44845;51.444;7.460;2023-05-10T05:20:16;20.42;;;14.63;;
59054;SDS011;44845;51.444;7.460;2023-05-10T05:22:42;18.88;;;14.05;;
59054;SDS011;44845;51.444;7.460;2023-05-10T05:25:07;20.23;;;14.48;;
59054;SDS011;44845;51.444;7.460;2023-05-10T05:27:33;22.85;;;15.13;;
59054;SDS011;44845;51.444;7.460;2023-05-10T05:29:58;20.38;;;14.07;;
59054;SDS011;44845;51.444;7.460;2023-05-10T05:32:24;20.30;;;15.60;;
59054;SDS011;44845;51.444;7.460;2023-05-10T05:34:50;21.88;;;16.77;;
59054;SDS011;44845;51.444;7.460;2023-05-10T05:37:16;24.85;;;16.88;;
59054;SDS011;44845;51.444;7.460;2023-05-10T05:39:44;25.33;;;17.40;;
59054;SDS011;44845;51.444;7.460;2023-05-10T05:42:10;26.40;;;17.55;;
59054;SDS011;44845;51.444;7.460;2023-05-10T05:44:36;26.25;;;18.60;;
59054;SDS011;44845;51.444;7.460;2023-05-10T05:47:02;26.35;;;19.05;;
59054;SDS011;44845;51.444;7.460;2023-05-10T05:49:27;27.67;;;19.15;;
59054;SDS011;44845;51.444;7.460;2023-05-10T05:51:52;26.05;;;19.13;;
59054;SDS011;44845;51.444;7.460;2023-05-10T05:54:18;34.38;;;20.20;;
59054;SDS011;44845;51.444;7.460;2023-05-10T05:56:43;27.38;;;20.00;;
59054;SDS011;44845;51.444;7.460;2023-05-10T05:59:09;28.23;;;19.90;;
59054;SDS011;44845;51.444;7.460;2023-05-10T06:01:35;31.08;;;20.45;;
59054;SDS011;44845;51.444;7.460;2023-05-10T06:04:00;34.58;;;19.33;;
59054;SDS011;44845;51.444;7.460;2023-05-10T06:06:25;31.80;;;21.48;;
59054;SDS011;44845;51.444;7.460;2023-05-10T06:08:51;30.00;;;19.95;;
59054;SDS011;44845;51.444;7.460;2023-05-10T06:11:17;30.35;;;21.15;;
59054;SDS011;44845;51.444;7.460;2023-05-10T06:13:42;34.33;;;21.25;;
59054;SDS011;44845;51.444;7.460;2023-05-10T06:16:07;32.83;;;21.13;;
59054;SDS011;44845;51.444;7.460;2023-05-10T06:18:33;30.65;;;20.95;;
59054;SDS011;44845;51.444;7.460;2023-05-10T06:20:58;33.03;;;21.70;;
59054;SDS011;44845;51.444;7.460;2023-05-10T06:23:24;35.65;;;21.42;;
59054;SDS011;44845;51.444;7.460;2023-05-10T06:25:50;34.47;;;22.15;;
59054;SDS011;44845;51.444;7.460;2023-05-10T06:28:16;40.13;;;24.05;;
59054;SDS011;44845;51.444;7.460;2023-05-10T06:30:41;34.75;;;23.00;;
59054;SDS011;44845;51.444;7.460;2023-05-10T06:33:06;37.80;;;24.10;;
59054;SDS011;44845;51.444;7.460;2023-05-10T06:35:32;34.03;;;22.02;;
59054;SDS011;44845;51.444;7.460;2023-05-10T06:37:58;36.50;;;22.95;;
59054;SDS011;44845;51.444;7.460;2023-05-10T06:40:23;33.75;;;21.83;;
59054;SDS011;44845;51.444;7.460;2023-05-10T06:42:49;32.25;;;22.67;;
59054;SDS011;44845;51.444;7.460;2023-05-10T06:45:14;37.10;;;23.58;;
59054;SDS011;44845;51.444;7.460;2023-05-10T06:47:40;36.80;;;22.75;;
59054;SDS011;44845;51.444;7.460;2023-05-10T06:50:09;39.10;;;23.48;;
59054;SDS011;44845;51.444;7.460;2023-05-10T06:52:36;35.55;;;23.35;;
59054;SDS011;44845;51.444;7.460;2023-05-10T06:55:02;36.85;;;24.20;;
59054;SDS011;44845;51.444;7.460;2023-05-10T06:57:28;39.22;;;24.73;;
59054;SDS011;44845;51.444;7.460;2023-05-10T06:59:54;47.05;;;24.88;;
59054;SDS011;44845;51.444;7.460;2023-05-10T07:02:21;38.80;;;24.90;;
59054;SDS011;44845;51.444;7.460;2023-05-10T07:04:46;34.80;;;23.92;;
59054;SDS011;44845;51.444;7.460;2023-05-10T07:07:12;33.80;;;23.35;;
59054;SDS011;44845;51.444;7.460;2023-05-10T07:09:38;37.22;;;24.65;;
59054;SDS011;44845;51.444;7.460;2023-05-10T07:12:04;43.03;;;25.83;;
59054;SDS011;44845;51.444;7.460;2023-05-10T07:14:29;33.25;;;23.63;;
59054;SDS011;44845;51.444;7.460;2023-05-10T07:16:54;36.53;;;24.38;;
59054;SDS011;44845;51.444;7.460;2023-05-10T07:19:20;35.53;;;24.13;;
59054;SDS011;44845;51.444;7.460;2023-05-10T07:21:45;42.95;;;24.00;;
59054;SDS011;44845;51.444;7.460;2023-05-10T07:24:10;37.47;;;24.38;;
59054;SDS011;44845;51.444;7.460;2023-05-10T07:26:36;31.88;;;23.20;;
59054;SDS011;44845;51.444;7.460;2023-05-10T07:29:01;31.27;;;22.00;;
59054;SDS011;44845;51.444;7.460;2023-05-10T07:31:27;32.90;;;23.45;;
59054;SDS011;44845;51.444;7.460;2023-05-10T07:33:52;32.00;;;22.23;;
59054;SDS011;44845;51.444;7.460;2023-05-10T07:36:18;30.75;;;21.55;;
59054;SDS011;44845;51.444;7.460;2023-05-10T07:38:43;33.10;;;21.23;;
59054;SDS011;44845;51.444;7.460;2023-05-10T07:41:11;32.05;;;21.80;;
59054;SDS011;44845;51.444;7.460;2023-05-10T07:43:36;28.48;;;19.48;;
59054;SDS011;44845;51.444;7.460;2023-05-10T07:46:02;33.10;;;19.60;;
59054;SDS011;44845;51.444;7.460;2023-05-10T07:48:27;28.70;;;19.05;;
59054;SDS011;44845;51.444;7.460;2023-05-10T07:50:52;26.23;;;18.05;;
59054;SDS011;44845;51.444;7.460;2023-05-10T07:53:18;28.83;;;18.20;;
59054;SDS011;44845;51.444;7.460;2023-05-10T07:55:43;28.85;;;18.60;;
59054;SDS011;44845;51.444;7.460;2023-05-10T07:58:09;28.50;;;20.35;;
59054;SDS011;44845;51.444;7.460;2023-05-10T08:00:34;30.02;;;19.85;;
59054;SDS011;44845;51.444;7.460;2023-05-10T08:02:59;29.55;;;19.20;;
59054;SDS011;44845;51.444;7.460;2023-05-10T08:05:25;29.48;;;19.23;;
59054;SDS011;44845;51.444;7.460;2023-05-10T08:07:50;29.10;;;19.58;;
59054;SDS011;44845;51.444;7.460;2023-05-10T08:10:16;28.27;;;20.70;;
59054;SDS011;44845;51.444;7.460;2023-05-10T08:12:41;31.30;;;22.00;;
59054;SDS011;44845;51.444;7.460;2023-05-10T08:15:07;36.50;;;22.27;;
59054;SDS011;44845;51.444;7.460;2023-05-10T08:17:33;35.10;;;22.70;;
59054;SDS011;44845;51.444;7.460;2023-05-10T08:19:59;34.33;;;21.73;;
59054;SDS011;44845;51.444;7.460;2023-05-10T08:22:24;34.00;;;21.67;;
59054;SDS011;44845;51.444;7.460;2023-05-10T08:24:50;28.92;;;19.35;;
59054;SDS011;44845;51.444;7.460;2023-05-10T08:27:15;23.58;;;16.65;;
59054;SDS011;44845;51.444;7.460;2023-05-10T08:29:40;21.38;;;15.10;;
59054;SDS011;44845;51.444;7.460;2023-05-10T08:32:06;16.83;;;12.60;;
59054;SDS011;44845;51.444;7.460;2023-05-10T08:34:31;14.93;;;10.77;;
59054;SDS011;44845;51.444;7.460;2023-05-10T08:36:57;17.08;;;10.82;;
59054;SDS011;44845;51.444;7.460;2023-05-10T08:39:22;17.23;;;10.70;;
59054;SDS011;44845;51.444;7.460;2023-05-10T08:41:48;18.38;;;10.75;;
59054;SDS011;44845;51.444;7.460;2023-05-10T08:44:18;17.38;;;10.35;;
59054;SDS011;44845;51.444;7.460;2023-05-10T08:46:45;21.17;;;10.80;;
59054;SDS011;44845;51.444;7.460;2023-05-10T08:49:13;18.27;;;10.95;;
59054;SDS011;44845;51.444;7.460;2023-05-10T08:51:43;16.63;;;10.55;;
59054;SDS011;44845;51.444;7.460;2023-05-10T08:54:12;14.45;;;10.43;;
59054;SDS011;44845;51.444;7.460;2023-05-10T08:56:37;22.75;;;10.65;;
59054;SDS011;44845;51.444;7.460;2023-05-10T08:59:03;18.08;;;9.82;;
59054;SDS011;44845;51.444;7.460;2023-05-10T09:01:28;15.90;;;9.77;;
59054;SDS011;44845;51.444;7.460;2023-05-10T09:03:57;20.50;;;9.98;;
59054;SDS011;44845;51.444;7.460;2023-05-10T09:06:23;17.23;;;9.48;;
59054;SDS011;44845;51.444;7.460;2023-05-10T09:08:49;16.77;;;9.80;;
59054;SDS011;44845;51.444;7.460;2023-05-10T09:11:15;21.65;;;9.93;;
59054;SDS011;44845;51.444;7.460;2023-05-10T09:13:41;17.85;;;9.82;;
59054;SDS011;44845;51.444;7.460;2023-05-10T09:16:07;15.40;;;10.05;;
59054;SDS011;44845;51.444;7.460;2023-05-10T09:18:32;18.48;;;10.10;;
59054;SDS011;44845;51.444;7.460;2023-05-10T09:20:57;16.63;;;11.65;;
59054;SDS011;44845;51.444;7.460;2023-05-10T09:23:23;17.75;;;11.57;;
59054;SDS011;44845;51.444;7.460;2023-05-10T09:26:03;19.05;;;11.82;;
59054;SDS011;44845;51.444;7.460;2023-05-10T09:28:32;19.42;;;11.40;;
59054;SDS011;44845;51.444;7.460;2023-05-10T09:30:58;22.55;;;11.88;;
59054;SDS011;44845;51.444;7.460;2023-05-10T09:33:23;19.52;;;11.60;;
59054;SDS011;44845;51.444;7.460;2023-05-10T09:35:50;17.42;;;10.68;;
59054;SDS011;44845;51.444;7.460;2023-05-10T09:38:16;16.80;;;10.57;;
59054;SDS011;44845;51.444;7.460;2023-05-10T09:40:42;17.35;;;9.30;;
59054;SDS011;44845;51.444;7.460;2023-05-10T09:43:19;14.63;;;9.73;;
59054;SDS011;44845;51.444;7.460;2023-05-10T09:45:45;15.65;;;9.02;;
59054;SDS011;44845;51.444;7.460;2023-05-10T09:48:13;13.82;;;9.05;;
59054;SDS011;44845;51.444;7.460;2023-05-10T09:50:39;10.27;;;7.50;;
59054;SDS011;44845;51.444;7.460;2023-05-10T09:53:05;12.15;;;7.30;;
59054;SDS011;44845;51.444;7.460;2023-05-10T09:55:48;12.68;;;7.40;;
59054;SDS011;44845;51.444;7.460;2023-05-10T09:58:15;12.55;;;6.43;;
59054;SDS011;44845;51.444;7.460;2023-05-10T10:00:43;11.10;;;6.47;;
59054;SDS011;44845;51.444;7.460;2023-05-10T10:03:16;8.60;;;6.35;;
59054;SDS011;44845;51.444;7.460;2023-05-10T10:05:45;11.68;;;6.38;;
59054;SDS011;44845;51.444;7.460;2023-05-10T10:08:12;9.15;;;6.18;;
59054;SDS011;44845;51.444;7.460;2023-05-10T10:10:38;9.93;;;6.38;;
59054;SDS011;44845;51.444;7.460;2023-05-10T10:13:05;10.07;;;5.43;;
59054;SDS011;44845;51.444;7.460;2023-05-10T10:15:31;8.80;;;6.28;;
59054;SDS011;44845;51.444;7.460;2023-05-10T10:17:57;8.43;;;5.60;;
59054;SDS011;44845;51.444;7.460;2023-05-10T10:20:24;13.63;;;5.55;;
59054;SDS011;44845;51.444;7.460;2023-05-10T10:22:50;8.60;;;5.95;;
59054;SDS011;44845;51.444;7.460;2023-05-10T10:25:16;8.48;;;5.70;;
59054;SDS011;44845;51.444;7.460;2023-05-10T10:27:56;7.88;;;5.10;;
59054;SDS011;44845;51.444;7.460;2023-05-10T10:30:39;12.98;;;6.20;;
59054;SDS011;44845;51.444;7.460;2023-05-10T10:36:01;8.35;;;5.78;;
59054;SDS011;44845;51.444;7.460;2023-05-10T10:38:37;10.18;;;5.95;;
59054;SDS011;44845;51.444;7.460;2023-05-10T10:41:10;11.88;;;7.30;;
59054;SDS011;44845;51.444;7.460;2023-05-10T10:44:22;8.93;;;6.22;;
59054;SDS011;44845;51.444;7.460;2023-05-10T10:46:58;11.25;;;7.38;;
59054;SDS011;44845;51.444;7.460;2023-05-10T10:49:24;12.65;;;7.38;;
59054;SDS011;44845;51.444;7.460;2023-05-10T10:55:01;10.35;;;6.60;;
59054;SDS011;44845;51.444;7.460;2023-05-10T11:00:21;15.85;;;9.70;;
59054;SDS011;44845;51.444;7.460;2023-05-10T11:02:50;16.23;;;10.32;;
59054;SDS011;44845;51.444;7.460;2023-05-10T11:05:39;21.77;;;14.05;;
59054;SDS011;44845;51.444;7.460;2023-05-10T11:08:08;24.75;;;14.57;;
59054;SDS011;44845;51.444;7.460;2023-05-10T11:10:36;23.33;;;14.45;;
59054;SDS011;44845;51.444;7.460;2023-05-10T11:13:04;26.17;;;15.25;;
59054;SDS011;44845;51.444;7.460;2023-05-10T11:15:31;27.70;;;14.43;;
59054;SDS011;44845;51.444;7.460;2023-05-10T11:17:57;24.40;;;13.18;;
59054;SDS011;44845;51.444;7.460;2023-05-10T11:20:23;21.58;;;12.38;;
59054;SDS011;44845;51.444;7.460;2023-05-10T11:22:58;20.38;;;12.02;;
59054;SDS011;44845;51.444;7.460;2023-05-10T11:25:40;16.50;;;10.75;;
59054;SDS011;44845;51.444;7.460;2023-05-10T11:28:07;21.02;;;11.55;;
59054;SDS011;44845;51.444;7.460;2023-05-10T11:30:32;18.73;;;10.10;;
59054;SDS011;44845;51.444;7.460;2023-05-10T11:32:57;13.85;;;9.93;;
59054;SDS011;44845;51.444;7.460;2023-05-10T11:35:23;13.95;;;9.50;;
59054;SDS011;44845;51.444;7.460;2023-05-10T11:37:48;11.57;;;8.57;;
59054;SDS011;44845;51.444;7.460;2023-05-10T11:40:13;14.23;;;7.82;;
59054;SDS011;44845;51.444;7.460;2023-05-10T11:42:39;10.45;;;7.68;;
59054;SDS011;44845;51.444;7.460;2023-05-10T11:45:05;10.50;;;7.32;;
59054;SDS011;44845;51.444;7.460;2023-05-10T11:47:31;15.38;;;7.22;;
59054;SDS011;44845;51.444;7.460;2023-05-10T11:49:56;10.57;;;6.57;;
59054;SDS011;44845;51.444;7.460;2023-05-10T11:52:23;11.57;;;7.30;;
59054;SDS011;44845;51.444;7.460;2023-05-10T11:54:52;14.20;;;8.45;;
59054;SDS011;44845;51.444;7.460;2023-05-10T11:57:18;12.32;;;9.10;;
59054;SDS011;44845;51.444;7.460;2023-05-10T11:59:45;12.90;;;9.07;;
59054;SDS011;44845;51.444;7.460;2023-05-10T12:02:11;15.73;;;10.35;;
59054;SDS011;44845;51.444;7.460;2023-05-10T12:04:37;15.27;;;10.63;;
59054;SDS011;44845;51.444;7.460;2023-05-10T12:07:03;13.70;;;10.02;;
59054;SDS011;44845;51.444;7.460;2023-05-10T12:09:28;13.95;;;10.20;;
59054;SDS011;44845;51.444;7.460;2023-05-10T12:11:55;14.93;;;10.20;;
59054;SDS011;44845;51.444;7.460;2023-05-10T12:14:21;14.57;;;10.00;;
59054;SDS011;44845;51.444;7.460;2023-05-10T12:16:47;14.50;;;9.95;;
59054;SDS011;44845;51.444;7.460;2023-05-10T12:19:12;20.30;;;11.73;;
59054;SDS011;44845;51.444;7.460;2023-05-10T12:21:44;13.80;;;10.98;;
59054;SDS011;44845;51.444;7.460;2023-05-10T12:24:09;13.82;;;10.27;;
59054;SDS011;44845;51.444;7.460;2023-05-10T12:26:35;12.85;;;10.50;;
59054;SDS011;44845;51.444;7.460;2023-05-10T12:29:13;15.68;;;10.75;;
59054;SDS011;44845;51.444;7.460;2023-05-10T12:31:57;16.35;;;10.00;;
59054;SDS011;44845;51.444;7.460;2023-05-10T12:34:31;12.90;;;9.52;;
59054;SDS011;44845;51.444;7.460;2023-05-10T12:36:57;15.53;;;8.87;;
59054;SDS011;44845;51.444;7.460;2023-05-10T12:39:23;13.27;;;8.02;;
59054;SDS011;44845;51.444;7.460;2023-05-10T12:41:49;11.32;;;7.93;;
59054;SDS011;44845;51.444;7.460;2023-05-10T12:44:16;13.77;;;7.55;;
59054;SDS011;44845;51.444;7.460;2023-05-10T12:46:42;12.27;;;8.48;;
59054;SDS011;44845;51.444;7.460;2023-05-10T12:49:07;13.38;;;8.18;;
59054;SDS011;44845;51.444;7.460;2023-05-10T12:51:33;12.48;;;8.65;;
59054;SDS011;44845;51.444;7.460;2023-05-10T12:53:58;17.33;;;9.95;;
59054;SDS011;44845;51.444;7.460;2023-05-10T12:56:23;11.45;;;8.45;;
59054;SDS011;44845;51.444;7.460;2023-05-10T12:58:49;15.77;;;9.35;;
59054;SDS011;44845;51.444;7.460;2023-05-10T13:01:14;12.50;;;9.88;;
59054;SDS011;44845;51.444;7.460;2023-05-10T13:03:40;16.00;;;9.73;;
59054;SDS011;44845;51.444;7.460;2023-05-10T13:06:05;13.60;;;10.70;;
59054;SDS011;44845;51.444;7.460;2023-05-10T13:08:31;13.35;;;9.57;;
59054;SDS011;44845;51.444;7.460;2023-05-10T13:10:58;15.88;;;10.43;;
59054;SDS011;44845;51.444;7.460;2023-05-10T13:13:25;11.60;;;9.55;;
59054;SDS011;44845;51.444;7.460;2023-05-10T13:15:51;10.00;;;8.70;;
59054;SDS011;44845;51.444;7.460;2023-05-10T13:18:16;9.13;;;7.53;;
59054;SDS011;44845;51.444;7.460;2023-05-10T13:20:41;9.60;;;7.05;;
59054;SDS011;44845;51.444;7.460;2023-05-10T13:23:09;8.88;;;6.32;;
59054;SDS011;44845;51.444;7.460;2023-05-10T13:25:34;11.43;;;6.53;;
59054;SDS011;44845;51.444;7.460;2023-05-10T13:28:00;13.48;;;6.22;;
59054;SDS011;44845;51.444;7.460;2023-05-10T13:30:25;7.40;;;6.10;;
59054;SDS011;44845;51.444;7.460;2023-05-10T13:32:51;9.10;;;7.05;;
59054;SDS011;44845;51.444;7.460;2023-05-10T13:35:16;10.70;;;7.88;;
59054;SDS011;44845;51.444;7.460;2023-05-10T13:37:41;15.35;;;6.90;;
59054;SDS011;44845;51.444;7.460;2023-05-10T13:40:07;11.23;;;6.60;;
59054;SDS011;44845;51.444;7.460;2023-05-10T13:42:33;12.60;;;8.63;;
59054;SDS011;44845;51.444;7.460;2023-05-10T13:44:59;10.77;;;7.60;;
59054;SDS011;44845;51.444;7.460;2023-05-10T13:47:25;8.95;;;7.30;;
59054;SDS011;44845;51.444;7.460;2023-05-10T13:49:51;12.65;;;7.78;;
59054;SDS011;44845;51.444;7.460;2023-05-10T13:52:16;11.63;;;7.70;;
59054;SDS011;44845;51.444;7.460;2023-05-10T13:54:42;12.15;;;8.00;;
59054;SDS011;44845;51.444;7.460;2023-05-10T13:57:07;9.63;;;6.70;;
59054;SDS011;44845;51.444;7.460;2023-05-10T13:59:33;15.88;;;7.85;;
59054;SDS011;44845;51.444;7.460;2023-05-10T14:01:58;11.30;;;6.78;;
59054;SDS011;44845;51.444;7.460;2023-05-10T14:04:24;7.28;;;6.57;;
59054;SDS011;44845;51.444;7.460;2023-05-10T14:06:50;9.63;;;8.00;;
59054;SDS011;44845;51.444;7.460;2023-05-10T14:09:15;10.15;;;7.47;;
59054;SDS011;44845;51.444;7.460;2023-05-10T14:11:41;11.35;;;7.97;;
59054;SDS011;44845;51.444;7.460;2023-05-10T14:14:08;13.73;;;7.53;;
59054;SDS011;44845;51.444;7.460;2023-05-10T14:16:34;10.65;;;6.75;;
59054;SDS011;44845;51.444;7.460;2023-05-10T14:18:59;12.65;;;6.65;;
59054;SDS011;44845;51.444;7.460;2023-05-10T14:21:24;10.50;;;6.75;;
59054;SDS011;44845;51.444;7.460;2023-05-10T14:23:50;9.10;;;6.57;;
59054;SDS011;44845;51.444;7.460;2023-05-10T14:26:15;11.00;;;6.53;;
59054;SDS011;44845;51.444;7.460;2023-05-10T14:28:41;9.70;;;5.60;;
59054;SDS011;44845;51.444;7.460;2023-05-10T14:31:06;5.97;;;5.32;;
59054;SDS011;44845;51.444;7.460;2023-05-10T14:33:31;6.80;;;5.25;;
59054;SDS011;44845;51.444;7.460;2023-05-10T14:35:57;6.57;;;4.70;;
59054;SDS011;44845;51.444;7.460;2023-05-10T14:38:22;5.25;;;4.10;;
59054;SDS011;44845;51.444;7.460;2023-05-10T14:40:48;4.20;;;3.78;;
59054;SDS011;44845;51.444;7.460;2023-05-10T14:43:14;7.57;;;3.97;;
59054;SDS011;44845;51.444;7.460;2023-05-10T14:45:39;22.10;;;4.90;;
59054;SDS011;44845;51.444;7.460;2023-05-10T14:48:05;4.72;;;3.45;;
59054;SDS011;44845;51.444;7.460;2023-05-10T14:50:30;5.28;;;3.85;;
59054;SDS011;44845;51.444;7.460;2023-05-10T14:52:56;4.78;;;4.10;;
59054;SDS011;44845;51.444;7.460;2023-05-10T14:55:22;6.40;;;4.05;;
59054;SDS011;44845;51.444;7.460;2023-05-10T14:57:47;5.47;;;3.80;;